EST,Max TemperatureF,Mean TemperatureF,Min TemperatureF,Max Dew PointF,MeanDew PointF,Min DewpointF,Max Humidity, Mean Humidity, Min Humidity, Max Sea Level PressureIn, Mean Sea Level PressureIn, Min Sea Level PressureIn, Max VisibilityMiles, Mean VisibilityMiles, Min VisibilityMiles, Max Wind SpeedMPH, Mean Wind SpeedMPH, Max Gust SpeedMPH,PrecipitationIn, CloudCover, Events, WindDirDegrees
2013-1-1,33,29,21,32,28,18,96,85,64,30.19,30.10,30.05,10,5,2,10,3,,0.02,7,Snow,324
2013-1-2,27,18,10,19,13,6,92,76,47,30.31,30.24,30.17,10,8,3,6,1,,0.00,1,,292
2013-1-3,36,20,5,23,14,1,87,70,46,30.35,30.30,30.26,10,9,6,14,3,17,0.00,3,,263
2013-1-4,36,32,23,24,20,18,81,64,50,30.39,30.35,30.32,10,10,9,15,7,21,0.00,3,,258
2013-1-5,41,26,12,26,20,8,92,73,53,30.40,30.31,30.20,10,8,3,9,2,,0.00,3,,192
2013-1-6,39,34,28,31,26,21,79,72,65,30.39,30.18,30.04,10,8,6,16,7,29,0.00,8,Rain,255
2013-1-7,41,28,15,25,19,10,93,77,53,30.52,30.42,30.30,10,6,2,8,2,,0.00,1,,190
2013-1-8,51,34,16,31,23,12,92,76,46,30.35,30.30,30.25,10,8,4,8,1,,0.00,0,,161
2013-1-9,53,40,27,43,33,24,93,80,52,30.54,30.37,30.25,10,9,5,10,4,17,0.03,3,Rain,260
2013-1-10,44,34,23,40,31,20,93,83,65,30.56,30.40,30.14,10,9,3,8,2,,0.04,5,Rain-Snow,95
2013-1-11,61,52,43,54,49,40,96,85,62,30.12,29.96,29.92,10,9,2,13,6,22,0.46,5,Rain,178
2013-1-12,66,52,39,61,52,37,100,89,70,30.04,29.97,29.81,10,7,0,10,4,16,0.01,5,Fog,178
2013-1-13,68,52,35,61,50,31,96,90,70,30.17,29.91,29.74,10,8,2,18,9,34,0.74,8,Rain,241
2013-1-14,33,28,24,27,20,19,81,76,69,30.48,30.38,30.20,10,10,7,13,8,17,0.00,6,,337
2013-1-15,33,27,21,24,22,17,85,74,66,30.42,30.31,30.13,10,9,6,10,6,,0.00,4,,45
2013-1-16,37,34,30,27,26,23,82,73,57,30.12,30.07,30.02,10,8,6,8,4,,0.00,5,,260
2013-1-17,43,35,27,29,24,17,88,70,51,30.43,30.24,30.14,10,9,7,13,4,20,0.00,1,,336
2013-1-18,41,28,15,23,17,12,88,61,35,30.56,30.45,30.26,10,10,10,12,4,20,0.00,0,,193
2013-1-19,55,47,39,28,25,23,55,43,28,30.25,30.09,29.94,10,10,10,18,10,29,0.00,0,,215
2013-1-20,46,36,27,34,16,10,65,48,39,30.28,30.17,29.94,10,10,10,17,12,31,0.00,2,,292
2013-1-21,26,19,12,16,10,-2,80,59,40,30.31,30.17,30.12,10,8,1,22,10,31,0.00,6,Snow,282
2013-1-22,19,13,7,-1,-3,-4,64,49,35,30.45,30.38,30.30,10,10,10,12,9,17,0.00,1,,282
2013-1-23,23,16,10,12,3,-2,71,51,42,30.40,30.29,30.14,10,10,9,9,5,16,0.00,7,Snow,246
2013-1-24,24,20,15,11,5,-1,64,52,34,30.64,30.50,30.18,10,10,10,20,9,29,0.00,1,,24
2013-1-25,27,23,19,20,15,5,86,72,48,30.46,30.17,30.06,10,7,0,8,5,,0.07,7,Fog-Snow,165
2013-1-26,32,24,14,19,16,10,89,73,56,30.49,30.35,30.17,10,8,5,8,5,,0.00,2,,310
2013-1-27,37,24,12,34,22,10,96,77,55,30.49,30.38,30.20,10,7,3,8,2,,0.24,4,Rain,107
2013-1-28,54,44,35,52,45,34,100,90,77,30.19,30.10,30.04,10,5,2,10,5,20,0.31,8,Rain,207
2013-1-29,64,58,52,57,53,49,94,79,67,30.07,29.92,29.59,10,10,7,14,7,25,0.00,6,,194
2013-1-30,68,50,33,57,46,24,94,80,68,29.58,29.42,29.29,10,9,1,32,14,50,0.85,7,Rain-Snow,235
2013-1-31,32,24,17,24,17,7,92,72,54,30.09,29.93,29.64,10,5,0,25,17,39,0.04,8,Fog-Snow,279